QCM brevet pilote ULM / Paramoteur - Paramoteur Paris Ouest
Ecole de paramoteur Adventure
   Accueil  |  Formation  |  Aire d'envol  |  Tarifs  |  Evasion  |  Liens  |  Nous contacter  |   BOUTIQUE EN LIGNE  
  QCM brevet pilote ulm
QCM ULM
SCORE =
0 / 0  
   
Question n° 1 :

Vous prenez connaissance du Metar de Bordeaux-Mérignac :
LFBD 181400Z 32012KT 9999 FEW016CB SCT030 BKN100 19/13 Q1013 TEMPO 28020G30KT 4000 TSRA SCT015CB=
Parmi les éléments prévus par la partie tendance, vous relevez :
a - de la bruine
b - une tempête de sable
c - un vent du 280° avec rafales
d - un vent du 320°


Questions précédentes :

> Retour accueil QCM > Déconnexion
Ohé !
   
 
c 2005 - Tous droits réservés - Paramoteur Paris Ouest
Ecole de paramoteur Adventure - Luc de Tilly
(apprentissage paramoteur, bapteme en paramoteur, brevet pilote paramoteur, formation brevet paramoteur, initiation paramoteur, instructeur paramoteur, materiel paramoteur...)

Boutique en ligne    Nous contacter      Ajouter aux favoris      Retour Accueil